sensor_id;sensor_type;location;lat;lon;timestamp;pressure;altitude;pressure_sealevel;temperature;humidity
48614;BME280;34408;51.426;5.444;2023-03-15T00:02:05;101184.34;;;7.67;56.76
48614;BME280;34408;51.426;5.444;2023-03-15T00:04:33;101167.41;;;7.60;56.62
48614;BME280;34408;51.426;5.444;2023-03-15T00:07:02;101186.56;;;7.63;57.17
48614;BME280;34408;51.426;5.444;2023-03-15T00:09:30;101166.19;;;7.62;57.69
48614;BME280;34408;51.426;5.444;2023-03-15T00:11:58;101170.72;;;7.62;57.70
48614;BME280;34408;51.426;5.444;2023-03-15T00:14:25;101171.53;;;7.62;56.97
48614;BME280;34408;51.426;5.444;2023-03-15T00:16:54;101161.69;;;7.63;56.71
48614;BME280;34408;51.426;5.444;2023-03-15T00:19:22;101164.34;;;7.63;57.59
48614;BME280;34408;51.426;5.444;2023-03-15T00:21:50;101159.00;;;7.63;57.37
48614;BME280;34408;51.426;5.444;2023-03-15T00:24:18;101152.63;;;7.64;57.34
48614;BME280;34408;51.426;5.444;2023-03-15T00:26:45;101168.69;;;7.64;56.71
48614;BME280;34408;51.426;5.444;2023-03-15T00:29:13;101174.22;;;7.62;56.85
48614;BME280;34408;51.426;5.444;2023-03-15T00:31:41;101186.56;;;7.63;57.12
48614;BME280;34408;51.426;5.444;2023-03-15T00:34:10;101186.75;;;7.62;57.34
48614;BME280;34408;51.426;5.444;2023-03-15T00:36:39;101187.78;;;7.61;57.64
48614;BME280;34408;51.426;5.444;2023-03-15T00:39:09;101192.94;;;7.62;57.37
48614;BME280;34408;51.426;5.444;2023-03-15T00:41:36;101195.63;;;7.62;56.99
48614;BME280;34408;51.426;5.444;2023-03-15T00:44:04;101190.28;;;7.62;57.61
48614;BME280;34408;51.426;5.444;2023-03-15T00:46:32;101192.94;;;7.62;57.78
48614;BME280;34408;51.426;5.444;2023-03-15T00:49:00;101191.09;;;7.63;58.03
48614;BME280;34408;51.426;5.444;2023-03-15T00:51:29;101191.91;;;7.63;57.73
48614;BME280;34408;51.426;5.444;2023-03-15T00:53:57;101187.59;;;7.62;57.19
48614;BME280;34408;51.426;5.444;2023-03-15T00:56:26;101184.09;;;7.62;57.32
48614;BME280;34408;51.426;5.444;2023-03-15T00:58:56;101176.91;;;7.62;57.54
48614;BME280;34408;51.426;5.444;2023-03-15T01:01:26;101174.41;;;7.61;58.18
48614;BME280;34408;51.426;5.444;2023-03-15T01:03:54;101183.06;;;7.63;57.43
48614;BME280;34408;51.426;5.444;2023-03-15T01:06:24;101187.59;;;7.62;57.74
48614;BME280;34408;51.426;5.444;2023-03-15T01:08:53;101185.94;;;7.61;57.54
48614;BME280;34408;51.426;5.444;2023-03-15T01:11:24;101192.94;;;7.62;58.08
48614;BME280;34408;51.426;5.444;2023-03-15T01:13:53;101190.28;;;7.62;58.12
48614;BME280;34408;51.426;5.444;2023-03-15T01:16:22;101198.28;;;7.62;58.08
48614;BME280;34408;51.426;5.444;2023-03-15T01:18:50;101200.34;;;7.60;57.76
48614;BME280;34408;51.426;5.444;2023-03-15T01:21:19;101204.66;;;7.61;58.43
48614;BME280;34408;51.426;5.444;2023-03-15T01:23:47;101204.84;;;7.60;58.41
48614;BME280;34408;51.426;5.444;2023-03-15T01:26:17;101207.53;;;7.60;57.86
48614;BME280;34408;51.426;5.444;2023-03-15T01:28:45;101205.06;;;7.58;58.04
48614;BME280;34408;51.426;5.444;2023-03-15T01:31:16;101210.59;;;7.57;58.14
48614;BME280;34408;51.426;5.444;2023-03-15T01:33:44;101209.75;;;7.56;57.55
48614;BME280;34408;51.426;5.444;2023-03-15T01:36:13;101219.63;;;7.56;58.08
48614;BME280;34408;51.426;5.444;2023-03-15T01:38:40;101224.34;;;7.54;58.08
48614;BME280;34408;51.426;5.444;2023-03-15T01:41:10;101217.97;;;7.55;57.45
48614;BME280;34408;51.426;5.444;2023-03-15T01:43:40;101223.34;;;7.55;58.01
48614;BME280;34408;51.426;5.444;2023-03-15T01:46:21;101217.97;;;7.55;58.25
48614;BME280;34408;51.426;5.444;2023-03-15T01:48:54;101214.66;;;7.53;57.92
48614;BME280;34408;51.426;5.444;2023-03-15T01:51:27;101215.50;;;7.53;58.30
48614;BME280;34408;51.426;5.444;2023-03-15T01:53:59;101229.06;;;7.51;57.61
48614;BME280;34408;51.426;5.444;2023-03-15T01:56:30;101221.44;;;7.48;57.92
48614;BME280;34408;51.426;5.444;2023-03-15T01:59:04;101230.28;;;7.49;58.82
48614;BME280;34408;51.426;5.444;2023-03-15T02:01:35;101222.25;;;7.49;58.85
48614;BME280;34408;51.426;5.444;2023-03-15T02:04:06;101226.97;;;7.47;58.59
48614;BME280;34408;51.426;5.444;2023-03-15T02:06:36;101220.97;;;7.45;58.44
48614;BME280;34408;51.426;5.444;2023-03-15T02:09:07;101225.31;;;7.46;58.71
48614;BME280;34408;51.426;5.444;2023-03-15T02:11:41;101229.84;;;7.45;57.87
48614;BME280;34408;51.426;5.444;2023-03-15T02:14:12;101241.34;;;7.46;58.74
48614;BME280;34408;51.426;5.444;2023-03-15T02:16:40;101239.50;;;7.46;58.74
48614;BME280;34408;51.426;5.444;2023-03-15T02:19:15;101246.91;;;7.44;58.54
48614;BME280;34408;51.426;5.444;2023-03-15T02:21:49;101253.25;;;7.43;58.96
48614;BME280;34408;51.426;5.444;2023-03-15T02:24:27;101271.16;;;7.43;59.12
48614;BME280;34408;51.426;5.444;2023-03-15T02:26:59;101265.16;;;7.41;58.90
48614;BME280;34408;51.426;5.444;2023-03-15T02:29:28;101262.50;;;7.41;59.32
48614;BME280;34408;51.426;5.444;2023-03-15T02:31:56;101257.97;;;7.41;58.82
48614;BME280;34408;51.426;5.444;2023-03-15T02:34:24;101261.47;;;7.42;58.42
48614;BME280;34408;51.426;5.444;2023-03-15T02:36:52;101250.16;;;7.40;58.86
48614;BME280;34408;51.426;5.444;2023-03-15T02:39:21;101260.00;;;7.39;58.81
48614;BME280;34408;51.426;5.444;2023-03-15T02:41:52;101254.84;;;7.38;58.93
48614;BME280;34408;51.426;5.444;2023-03-15T02:44:22;101262.69;;;7.39;58.39
48614;BME280;34408;51.426;5.444;2023-03-15T02:46:58;101266.38;;;7.38;58.81
48614;BME280;34408;51.426;5.444;2023-03-15T02:49:30;101279.28;;;7.35;59.53
48614;BME280;34408;51.426;5.444;2023-03-15T02:51:59;101280.31;;;7.34;58.46
48614;BME280;34408;51.426;5.444;2023-03-15T02:54:27;101290.00;;;7.35;58.46
48614;BME280;34408;51.426;5.444;2023-03-15T02:56:54;101279.50;;;7.33;58.30
48614;BME280;34408;51.426;5.444;2023-03-15T02:59:22;101285.03;;;7.32;58.72
48614;BME280;34408;51.426;5.444;2023-03-15T03:01:50;101284.00;;;7.33;58.74
48614;BME280;34408;51.426;5.444;2023-03-15T03:04:19;101288.53;;;7.32;58.90
48614;BME280;34408;51.426;5.444;2023-03-15T03:06:47;101296.75;;;7.31;59.06
48614;BME280;34408;51.426;5.444;2023-03-15T03:09:15;101301.91;;;7.32;59.26
48614;BME280;34408;51.426;5.444;2023-03-15T03:11:42;101300.44;;;7.30;58.33
48614;BME280;34408;51.426;5.444;2023-03-15T03:14:10;101304.94;;;7.29;58.48
48614;BME280;34408;51.426;5.444;2023-03-15T03:16:40;101315.63;;;7.29;58.99
48614;BME280;34408;51.426;5.444;2023-03-15T03:19:09;101322.66;;;7.30;58.70
48614;BME280;34408;51.426;5.444;2023-03-15T03:21:39;101322.19;;;7.27;58.87
48614;BME280;34408;51.426;5.444;2023-03-15T03:24:09;101324.41;;;7.23;59.29
48614;BME280;34408;51.426;5.444;2023-03-15T03:26:36;101332.06;;;7.26;58.73
48614;BME280;34408;51.426;5.444;2023-03-15T03:29:04;101334.09;;;7.24;59.24
48614;BME280;34408;51.426;5.444;2023-03-15T03:31:32;101331.41;;;7.24;59.26
48614;BME280;34408;51.426;5.444;2023-03-15T03:34:00;101334.09;;;7.24;59.33
48614;BME280;34408;51.426;5.444;2023-03-15T03:36:28;101333.44;;;7.22;59.06
48614;BME280;34408;51.426;5.444;2023-03-15T03:38:57;101348.47;;;7.23;58.88
48614;BME280;34408;51.426;5.444;2023-03-15T03:41:24;101348.66;;;7.22;59.12
48614;BME280;34408;51.426;5.444;2023-03-15T03:43:52;101355.03;;;7.21;58.48
48614;BME280;34408;51.426;5.444;2023-03-15T03:46:20;101353.19;;;7.21;59.06
48614;BME280;34408;51.426;5.444;2023-03-15T03:48:47;101350.50;;;7.21;59.35
48614;BME280;34408;51.426;5.444;2023-03-15T03:51:15;101348.84;;;7.20;58.65
48614;BME280;34408;51.426;5.444;2023-03-15T03:53:43;101355.22;;;7.19;58.94
48614;BME280;34408;51.426;5.444;2023-03-15T03:56:12;101356.88;;;7.20;59.33
48614;BME280;34408;51.426;5.444;2023-03-15T03:58:40;101354.38;;;7.18;59.23
48614;BME280;34408;51.426;5.444;2023-03-15T04:01:07;101363.59;;;7.16;59.43
48614;BME280;34408;51.426;5.444;2023-03-15T04:03:35;101367.28;;;7.15;58.72
48614;BME280;34408;51.426;5.444;2023-03-15T04:06:03;101372.63;;;7.15;59.07
48614;BME280;34408;51.426;5.444;2023-03-15T04:08:31;101378.16;;;7.13;59.15
48614;BME280;34408;51.426;5.444;2023-03-15T04:10:59;101379.19;;;7.12;58.89
48614;BME280;34408;51.426;5.444;2023-03-15T04:13:30;101389.88;;;7.12;58.44
48614;BME280;34408;51.426;5.444;2023-03-15T04:15:58;101391.91;;;7.10;59.32
48614;BME280;34408;51.426;5.444;2023-03-15T04:18:28;101389.41;;;7.09;59.11
48614;BME280;34408;51.426;5.444;2023-03-15T04:20:55;101396.59;;;7.08;58.72
48614;BME280;34408;51.426;5.444;2023-03-15T04:23:23;101404.81;;;7.07;58.78
48614;BME280;34408;51.426;5.444;2023-03-15T04:25:51;101415.50;;;7.07;58.84
48614;BME280;34408;51.426;5.444;2023-03-15T04:28:20;101405.81;;;7.06;58.93
48614;BME280;34408;51.426;5.444;2023-03-15T04:30:50;101413.00;;;7.05;59.04
48614;BME280;34408;51.426;5.444;2023-03-15T04:33:24;101414.03;;;7.04;58.29
48614;BME280;34408;51.426;5.444;2023-03-15T04:35:52;101418.34;;;7.05;59.13
48614;BME280;34408;51.426;5.444;2023-03-15T04:38:20;101430.88;;;7.05;58.99
48614;BME280;34408;51.426;5.444;2023-03-15T04:40:51;101426.75;;;7.02;58.87
48614;BME280;34408;51.426;5.444;2023-03-15T04:43:20;101429.59;;;7.01;58.54
48614;BME280;34408;51.426;5.444;2023-03-15T04:45:51;101427.28;;;6.98;58.37
48614;BME280;34408;51.426;5.444;2023-03-15T04:48:18;101425.44;;;6.98;58.87
48614;BME280;34408;51.426;5.444;2023-03-15T04:50:46;101433.66;;;6.97;58.93
48614;BME280;34408;51.426;5.444;2023-03-15T04:53:14;101427.47;;;6.96;58.88
48614;BME280;34408;51.426;5.444;2023-03-15T04:55:41;101435.31;;;6.98;58.58
48614;BME280;34408;51.426;5.444;2023-03-15T04:58:09;101438.16;;;6.96;58.81
48614;BME280;34408;51.426;5.444;2023-03-15T05:00:37;101437.34;;;6.96;58.87
48614;BME280;34408;51.426;5.444;2023-03-15T05:03:06;101436.50;;;6.95;58.59
48614;BME280;34408;51.426;5.444;2023-03-15T05:05:34;101442.88;;;6.94;58.30
48614;BME280;34408;51.426;5.444;2023-03-15T05:08:02;101445.75;;;6.93;58.90
48614;BME280;34408;51.426;5.444;2023-03-15T05:10:30;101448.41;;;6.93;58.95
48614;BME280;34408;51.426;5.444;2023-03-15T05:12:58;101453.13;;;6.91;58.65
48614;BME280;34408;51.426;5.444;2023-03-15T05:15:26;101457.63;;;6.90;58.78
48614;BME280;34408;51.426;5.444;2023-03-15T05:17:54;101457.81;;;6.89;58.45
48614;BME280;34408;51.426;5.444;2023-03-15T05:20:23;101468.31;;;6.90;58.45
48614;BME280;34408;51.426;5.444;2023-03-15T05:22:51;101465.00;;;6.88;58.65
48614;BME280;34408;51.426;5.444;2023-03-15T05:25:19;101474.88;;;6.88;58.48
48614;BME280;34408;51.426;5.444;2023-03-15T05:27:47;101478.53;;;6.87;58.79
48614;BME280;34408;51.426;5.444;2023-03-15T05:30:15;101476.06;;;6.85;58.46
48614;BME280;34408;51.426;5.444;2023-03-15T05:32:43;101486.09;;;6.83;58.57
48614;BME280;34408;51.426;5.444;2023-03-15T05:35:12;101483.41;;;6.83;58.50
48614;BME280;34408;51.426;5.444;2023-03-15T05:37:41;101484.25;;;6.83;59.05
48614;BME280;34408;51.426;5.444;2023-03-15T05:40:09;101481.56;;;6.83;58.61
48614;BME280;34408;51.426;5.444;2023-03-15T05:42:37;101487.94;;;6.82;58.81
48614;BME280;34408;51.426;5.444;2023-03-15T05:45:06;101490.78;;;6.81;59.00
48614;BME280;34408;51.426;5.444;2023-03-15T05:47:34;101490.78;;;6.81;58.44
48614;BME280;34408;51.426;5.444;2023-03-15T05:50:02;101489.97;;;6.80;58.91
48614;BME280;34408;51.426;5.444;2023-03-15T05:52:31;101471.69;;;6.69;58.81
48614;BME280;34408;51.426;5.444;2023-03-15T05:55:00;101486.81;;;6.77;58.76
48614;BME280;34408;51.426;5.444;2023-03-15T05:57:27;101491.34;;;6.76;58.51
48614;BME280;34408;51.426;5.444;2023-03-15T05:59:55;101504.50;;;6.78;58.74
48614;BME280;34408;51.426;5.444;2023-03-15T06:02:23;101511.69;;;6.77;59.09
48614;BME280;34408;51.426;5.444;2023-03-15T06:04:51;101516.19;;;6.77;58.75
48614;BME280;34408;51.426;5.444;2023-03-15T06:07:19;101516.38;;;6.75;58.95
48614;BME280;34408;51.426;5.444;2023-03-15T06:09:46;101524.41;;;6.75;58.95
48614;BME280;34408;51.426;5.444;2023-03-15T06:12:16;101523.56;;;6.75;58.46
48614;BME280;34408;51.426;5.444;2023-03-15T06:14:43;101527.25;;;6.74;58.89
48614;BME280;34408;51.426;5.444;2023-03-15T06:17:11;101525.59;;;6.73;58.65
48614;BME280;34408;51.426;5.444;2023-03-15T06:19:39;101523.28;;;6.70;58.96
48614;BME280;34408;51.426;5.444;2023-03-15T06:22:07;101526.41;;;6.73;58.86
48614;BME280;34408;51.426;5.444;2023-03-15T06:24:36;101536.63;;;6.70;59.11
48614;BME280;34408;51.426;5.444;2023-03-15T06:27:03;101541.97;;;6.70;58.70
48614;BME280;34408;51.426;5.444;2023-03-15T06:29:33;101557.16;;;6.69;58.69
48614;BME280;34408;51.426;5.444;2023-03-15T06:32:00;101554.69;;;6.68;58.60
48614;BME280;34408;51.426;5.444;2023-03-15T06:34:28;101566.19;;;6.68;59.08
48614;BME280;34408;51.426;5.444;2023-03-15T06:36:56;101567.19;;;6.67;59.08
48614;BME280;34408;51.426;5.444;2023-03-15T06:39:24;101575.38;;;6.66;58.82
48614;BME280;34408;51.426;5.444;2023-03-15T06:41:51;101578.91;;;6.66;59.21
48614;BME280;34408;51.426;5.444;2023-03-15T06:44:22;101585.91;;;6.67;59.25
48614;BME280;34408;51.426;5.444;2023-03-15T06:46:51;101593.06;;;6.67;58.74
48614;BME280;34408;51.426;5.444;2023-03-15T06:49:19;101598.41;;;6.67;59.11
48614;BME280;34408;51.426;5.444;2023-03-15T06:51:47;101603.94;;;6.65;59.46
48614;BME280;34408;51.426;5.444;2023-03-15T06:54:14;101603.09;;;6.65;59.34
48614;BME280;34408;51.426;5.444;2023-03-15T06:56:42;101602.09;;;6.66;59.35
48614;BME280;34408;51.426;5.444;2023-03-15T06:59:10;101605.59;;;6.66;58.87
48614;BME280;34408;51.426;5.444;2023-03-15T07:01:38;101610.47;;;6.63;59.57
48614;BME280;34408;51.426;5.444;2023-03-15T07:04:07;101607.16;;;6.61;59.47
48614;BME280;34408;51.426;5.444;2023-03-15T07:06:35;101609.81;;;6.61;59.76
48614;BME280;34408;51.426;5.444;2023-03-15T07:09:03;101614.97;;;6.62;59.92
48614;BME280;34408;51.426;5.444;2023-03-15T07:11:32;101617.47;;;6.64;59.90
48614;BME280;34408;51.426;5.444;2023-03-15T07:13:59;101624.66;;;6.63;59.95
48614;BME280;34408;51.426;5.444;2023-03-15T07:16:27;101632.72;;;6.55;60.96
48614;BME280;34408;51.426;5.444;2023-03-15T07:18:55;101632.06;;;6.53;60.87
48614;BME280;34408;51.426;5.444;2023-03-15T07:21:26;101649.56;;;6.56;61.02
48614;BME280;34408;51.426;5.444;2023-03-15T07:23:54;101637.09;;;6.48;60.34
48614;BME280;34408;51.426;5.444;2023-03-15T07:26:21;101649.41;;;6.57;60.40
48614;BME280;34408;51.426;5.444;2023-03-15T07:28:49;101653.72;;;6.58;60.52
48614;BME280;34408;51.426;5.444;2023-03-15T07:31:17;101656.22;;;6.60;60.09
48614;BME280;34408;51.426;5.444;2023-03-15T07:33:45;101659.72;;;6.60;60.23
48614;BME280;34408;51.426;5.444;2023-03-15T07:36:12;101670.22;;;6.62;60.60
48614;BME280;34408;51.426;5.444;2023-03-15T07:38:41;101668.41;;;6.62;60.35
48614;BME280;34408;51.426;5.444;2023-03-15T07:41:09;101672.91;;;6.62;60.33
48614;BME280;34408;51.426;5.444;2023-03-15T07:43:37;101675.56;;;6.62;60.61
48614;BME280;34408;51.426;5.444;2023-03-15T07:46:05;101682.75;;;6.61;60.61
48614;BME280;34408;51.426;5.444;2023-03-15T07:48:33;101684.78;;;6.59;62.67
48614;BME280;34408;51.426;5.444;2023-03-15T07:51:01;101687.78;;;6.56;61.67
48614;BME280;34408;51.426;5.444;2023-03-15T07:53:29;101695.97;;;6.55;61.64
48614;BME280;34408;51.426;5.444;2023-03-15T07:55:58;101702.97;;;6.56;61.21
48614;BME280;34408;51.426;5.444;2023-03-15T07:58:27;101703.63;;;6.58;61.43
48614;BME280;34408;51.426;5.444;2023-03-15T08:00:55;101707.78;;;6.60;61.22
48614;BME280;34408;51.426;5.444;2023-03-15T08:03:23;101713.78;;;6.62;60.80
48614;BME280;34408;51.426;5.444;2023-03-15T08:05:52;101722.81;;;6.61;61.34
48614;BME280;34408;51.426;5.444;2023-03-15T08:08:22;101723.66;;;6.62;60.85
48614;BME280;34408;51.426;5.444;2023-03-15T08:10:50;101725.31;;;6.63;61.15
48614;BME280;34408;51.426;5.444;2023-03-15T08:13:19;101741.81;;;6.66;61.17
48614;BME280;34408;51.426;5.444;2023-03-15T08:15:47;101747.50;;;6.63;60.78
48614;BME280;34408;51.426;5.444;2023-03-15T08:18:14;101747.34;;;6.65;61.20
48614;BME280;34408;51.426;5.444;2023-03-15T08:20:42;101737.50;;;6.65;60.98
48614;BME280;34408;51.426;5.444;2023-03-15T08:23:10;101744.66;;;6.65;60.96
48614;BME280;34408;51.426;5.444;2023-03-15T08:25:42;101743.66;;;6.66;61.17
48614;BME280;34408;51.426;5.444;2023-03-15T08:28:10;101748.16;;;6.65;61.23
48614;BME280;34408;51.426;5.444;2023-03-15T08:30:40;101755.19;;;6.66;61.15
48614;BME280;34408;51.426;5.444;2023-03-15T08:33:07;101749.00;;;6.66;61.34
48614;BME280;34408;51.426;5.444;2023-03-15T08:35:38;101756.19;;;6.65;61.20
48614;BME280;34408;51.426;5.444;2023-03-15T08:38:07;101756.19;;;6.65;61.57
48614;BME280;34408;51.426;5.444;2023-03-15T08:40:35;101756.19;;;6.65;61.20
48614;BME280;34408;51.426;5.444;2023-03-15T08:43:05;101758.84;;;6.65;61.22
48614;BME280;34408;51.426;5.444;2023-03-15T08:45:33;101763.19;;;6.66;61.41
48614;BME280;34408;51.426;5.444;2023-03-15T08:48:22;101760.34;;;6.68;61.60
48614;BME280;34408;51.426;5.444;2023-03-15T08:50:49;101770.84;;;6.69;61.30
48614;BME280;34408;51.426;5.444;2023-03-15T08:53:17;101774.19;;;6.71;61.28
48614;BME280;34408;51.426;5.444;2023-03-15T08:55:46;101774.00;;;6.73;61.46
48614;BME280;34408;51.426;5.444;2023-03-15T08:58:14;101769.34;;;6.75;61.25
48614;BME280;34408;51.426;5.444;2023-03-15T09:00:42;101782.34;;;6.78;61.08
48614;BME280;34408;51.426;5.444;2023-03-15T09:03:09;101774.47;;;6.84;61.69
48614;BME280;34408;51.426;5.444;2023-03-15T09:05:39;101784.56;;;6.97;61.14
48614;BME280;34408;51.426;5.444;2023-03-15T09:08:06;101786.78;;;7.16;59.69
48614;BME280;34408;51.426;5.444;2023-03-15T09:10:34;101791.84;;;7.34;59.48
48614;BME280;34408;51.426;5.444;2023-03-15T09:13:02;101790.66;;;7.60;59.53
48614;BME280;34408;51.426;5.444;2023-03-15T09:15:30;101786.66;;;7.78;58.45
48614;BME280;34408;51.426;5.444;2023-03-15T09:17:57;101784.31;;;7.98;57.81
48614;BME280;34408;51.426;5.444;2023-03-15T09:20:25;101788.97;;;8.19;56.89
48614;BME280;34408;51.426;5.444;2023-03-15T09:22:56;101784.66;;;8.33;56.95
48614;BME280;34408;51.426;5.444;2023-03-15T09:25:24;101783.94;;;8.54;56.65
48614;BME280;34408;51.426;5.444;2023-03-15T09:27:53;101787.66;;;8.74;56.25
48614;BME280;34408;51.426;5.444;2023-03-15T09:30:20;101784.50;;;8.85;55.20
48614;BME280;34408;51.426;5.444;2023-03-15T09:32:48;101790.22;;;8.97;55.29
48614;BME280;34408;51.426;5.444;2023-03-15T09:35:18;101794.00;;;9.02;55.40
48614;BME280;34408;51.426;5.444;2023-03-15T09:37:47;101794.09;;;8.94;55.68
48614;BME280;34408;51.426;5.444;2023-03-15T09:40:21;101799.03;;;8.76;55.73
48614;BME280;34408;51.426;5.444;2023-03-15T09:43:00;101793.63;;;8.55;55.54
48614;BME280;34408;51.426;5.444;2023-03-15T09:45:39;101790.47;;;8.36;57.00
48614;BME280;34408;51.426;5.444;2023-03-15T09:48:11;101796.25;;;8.25;56.56
48614;BME280;34408;51.426;5.444;2023-03-15T09:50:42;101796.53;;;8.15;57.20
48614;BME280;34408;51.426;5.444;2023-03-15T09:53:14;101793.75;;;8.09;57.40
48614;BME280;34408;51.426;5.444;2023-03-15T09:55:45;101793.66;;;8.02;57.59
48614;BME280;34408;51.426;5.444;2023-03-15T09:58:18;101795.19;;;7.97;58.03
48614;BME280;34408;51.426;5.444;2023-03-15T10:00:49;101800.72;;;7.95;58.68
48614;BME280;34408;51.426;5.444;2023-03-15T10:03:22;101798.25;;;7.94;58.49
48614;BME280;34408;51.426;5.444;2023-03-15T10:05:56;101805.63;;;7.92;58.39
48614;BME280;34408;51.426;5.444;2023-03-15T10:08:25;101806.63;;;7.91;58.98
48614;BME280;34408;51.426;5.444;2023-03-15T10:10:59;101795.94;;;7.91;59.30
48614;BME280;34408;51.426;5.444;2023-03-15T10:13:45;101792.78;;;7.87;58.83
48614;BME280;34408;51.426;5.444;2023-03-15T10:16:26;101798.31;;;7.86;59.00
48614;BME280;34408;51.426;5.444;2023-03-15T10:19:05;101799.31;;;7.84;58.80
48614;BME280;34408;51.426;5.444;2023-03-15T10:21:48;101802.19;;;7.83;58.98
48614;BME280;34408;51.426;5.444;2023-03-15T10:24:19;101795.16;;;7.82;58.88
48614;BME280;34408;51.426;5.444;2023-03-15T10:26:50;101800.53;;;7.82;58.00
48614;BME280;34408;51.426;5.444;2023-03-15T10:29:20;101803.38;;;7.80;58.67
48614;BME280;34408;51.426;5.444;2023-03-15T10:31:53;101799.50;;;7.83;59.55
48614;BME280;34408;51.426;5.444;2023-03-15T10:34:22;101798.31;;;7.86;58.92
48614;BME280;34408;51.426;5.444;2023-03-15T10:36:51;101780.47;;;7.78;59.45
48614;BME280;34408;51.426;5.444;2023-03-15T10:39:21;101807.81;;;7.88;59.26
48614;BME280;34408;51.426;5.444;2023-03-15T10:41:52;101802.94;;;7.92;59.06
48614;BME280;34408;51.426;5.444;2023-03-15T10:44:22;101806.91;;;7.96;59.57
48614;BME280;34408;51.426;5.444;2023-03-15T10:47:02;101803.22;;;7.97;59.46
48614;BME280;34408;51.426;5.444;2023-03-15T10:49:47;101816.06;;;8.01;59.21
48614;BME280;34408;51.426;5.444;2023-03-15T10:52:31;101814.88;;;8.04;59.47
48614;BME280;34408;51.426;5.444;2023-03-15T10:55:04;101818.84;;;8.08;59.48
48614;BME280;34408;51.426;5.444;2023-03-15T10:57:39;101825.69;;;8.10;58.74
48614;BME280;34408;51.426;5.444;2023-03-15T11:00:24;101823.66;;;8.12;58.48
48614;BME280;34408;51.426;5.444;2023-03-15T11:03:01;101831.50;;;8.14;58.65
48614;BME280;34408;51.426;5.444;2023-03-15T11:05:30;101830.50;;;8.15;59.06
48614;BME280;34408;51.426;5.444;2023-03-15T11:07:59;101839.28;;;8.24;58.34
48614;BME280;34408;51.426;5.444;2023-03-15T11:10:32;101841.47;;;8.43;57.32
48614;BME280;34408;51.426;5.444;2023-03-15T11:13:18;101834.38;;;8.65;57.52
48614;BME280;34408;51.426;5.444;2023-03-15T11:15:54;101831.94;;;8.85;57.05
48614;BME280;34408;51.426;5.444;2023-03-15T11:18:28;101840.31;;;9.11;55.97
48614;BME280;34408;51.426;5.444;2023-03-15T11:20:57;101848.13;;;9.27;54.31
48614;BME280;34408;51.426;5.444;2023-03-15T11:23:28;101850.25;;;9.32;54.05
48614;BME280;34408;51.426;5.444;2023-03-15T11:25:57;101853.13;;;9.30;55.00
48614;BME280;34408;51.426;5.444;2023-03-15T11:28:27;101857.19;;;9.26;55.18
48614;BME280;34408;51.426;5.444;2023-03-15T11:30:56;101868.84;;;9.33;56.34
48614;BME280;34408;51.426;5.444;2023-03-15T11:33:32;101863.97;;;9.22;55.92
48614;BME280;34408;51.426;5.444;2023-03-15T11:36:06;101854.16;;;9.14;57.12
48614;BME280;34408;51.426;5.444;2023-03-15T11:38:39;101859.91;;;9.11;57.13
48614;BME280;34408;51.426;5.444;2023-03-15T11:41:15;101859.28;;;9.09;57.56
48614;BME280;34408;51.426;5.444;2023-03-15T11:43:54;101859.44;;;9.08;58.18
48614;BME280;34408;51.426;5.444;2023-03-15T11:46:27;101850.94;;;9.04;56.34
48614;BME280;34408;51.426;5.444;2023-03-15T11:49:00;101848.47;;;9.03;56.93
48614;BME280;34408;51.426;5.444;2023-03-15T11:51:32;101852.81;;;9.04;57.33
48614;BME280;34408;51.426;5.444;2023-03-15T11:54:06;101844.13;;;9.02;56.37
48614;BME280;34408;51.426;5.444;2023-03-15T11:56:48;101844.56;;;9.05;57.15
48614;BME280;34408;51.426;5.444;2023-03-15T11:59:20;101838.56;;;9.03;57.00
48614;BME280;34408;51.426;5.444;2023-03-15T12:01:54;101830.91;;;9.00;55.59
48614;BME280;34408;51.426;5.444;2023-03-15T12:04:50;101831.31;;;9.19;56.62
48614;BME280;34408;51.426;5.444;2023-03-15T12:07:35;101832.06;;;9.12;56.50
48614;BME280;34408;51.426;5.444;2023-03-15T12:10:36;101832.25;;;9.11;55.06
48614;BME280;34408;51.426;5.444;2023-03-15T12:13:24;101824.41;;;9.09;56.34
48614;BME280;34408;51.426;5.444;2023-03-15T12:15:54;101834.13;;;9.10;56.81
48614;BME280;34408;51.426;5.444;2023-03-15T12:18:29;101828.09;;;9.08;56.62
48614;BME280;34408;51.426;5.444;2023-03-15T12:21:08;101823.56;;;9.09;55.47
48614;BME280;34408;51.426;5.444;2023-03-15T12:23:40;101819.41;;;9.06;53.67
48614;BME280;34408;51.426;5.444;2023-03-15T12:26:15;101834.50;;;9.07;54.43
48614;BME280;34408;51.426;5.444;2023-03-15T12:28:51;101823.94;;;9.06;53.89
48614;BME280;34408;51.426;5.444;2023-03-15T12:31:24;101822.75;;;9.08;55.01
48614;BME280;34408;51.426;5.444;2023-03-15T12:33:54;101824.47;;;9.16;55.16
48614;BME280;34408;51.426;5.444;2023-03-15T12:36:33;101827.06;;;9.24;56.16
48614;BME280;34408;51.426;5.444;2023-03-15T12:39:19;101827.88;;;9.25;55.21
48614;BME280;34408;51.426;5.444;2023-03-15T12:41:48;101829.94;;;9.23;54.80
48614;BME280;34408;51.426;5.444;2023-03-15T12:44:18;101831.78;;;9.22;55.90
48614;BME280;34408;51.426;5.444;2023-03-15T12:46:55;101832.59;;;9.23;55.70
48614;BME280;34408;51.426;5.444;2023-03-15T12:49:29;101829.56;;;9.26;56.39
48614;BME280;34408;51.426;5.444;2023-03-15T12:51:59;101831.22;;;9.27;54.66
48614;BME280;34408;51.426;5.444;2023-03-15T12:54:31;101819.00;;;9.24;53.22
48614;BME280;34408;51.426;5.444;2023-03-15T12:57:02;101828.16;;;9.30;53.93
48614;BME280;34408;51.426;5.444;2023-03-15T12:59:35;101834.16;;;9.32;54.52
48614;BME280;34408;51.426;5.444;2023-03-15T13:02:23;101832.75;;;9.36;54.14
48614;BME280;34408;51.426;5.444;2023-03-15T13:05:23;101824.53;;;9.37;53.38
48614;BME280;34408;51.426;5.444;2023-03-15T13:07:57;101825.34;;;9.38;53.10
48614;BME280;34408;51.426;5.444;2023-03-15T13:13:38;101827.66;;;9.41;52.84
48614;BME280;34408;51.426;5.444;2023-03-15T13:16:18;101824.13;;;9.40;53.33
48614;BME280;34408;51.426;5.444;2023-03-15T13:18:57;101829.13;;;9.43;53.98
48614;BME280;34408;51.426;5.444;2023-03-15T13:21:30;101829.13;;;9.43;54.28